Time;durP1;ratioP1;P1;durP2;ratioP2;P2;SDS_P1;SDS_P2;PMS_P1;PMS_P2;Temp;Humidity;BMP_temperature;BMP_pressure;BME280_temperature;BME280_humidity;BME280_pressure;Samples;Min_cycle;Max_cycle;Signal;HPM_P1;HPM_P2
2022/12/15 00:40:16;;;;;;;0.77;0.77;;;;;;;-3.51;100.00;95621.00;88175;199;64004;-55
2022/12/15 00:40:51;;;;;;;0.70;0.70;;;;;;;-3.51;100.00;95626.31;29394;234;64009;-55
2022/12/15 00:41:22;;;;;;;0.80;0.80;;;;;;;-3.51;100.00;95623.66;29371;206;64009;-56
2022/12/15 00:41:53;;;;;;;0.70;0.70;;;;;;;-3.49;100.00;95623.44;29371;218;64013;-55
2022/12/15 00:42:31;;;;;;;2.15;2.05;;;;;;;-3.47;100.00;95631.94;29373;197;63005;-57
2022/12/15 00:43:02;;;;;;;0.80;0.80;;;;;;;-3.47;100.00;95630.09;29373;341;63009;-56
2022/12/15 00:43:35;;;;;;;0.80;0.80;;;;;;;-3.46;99.92;95634.34;29373;231;63005;-56
2022/12/15 00:44:07;;;;;;;0.80;0.80;;;;;;;-3.45;99.98;95628.00;29373;259;63009;-56
2022/12/15 00:44:38;;;;;;;0.60;0.60;;;;;;;-3.45;100.00;95633.31;29373;214;63009;-56
2022/12/15 00:45:10;;;;;;;0.80;0.80;;;;;;;-3.44;99.98;95629.59;29373;326;63009;-56
2022/12/15 00:47:20;;;;;;;0.70;0.70;;;;;;;-3.43;100.00;95648.97;29371;219;64009;-56
2022/12/15 00:47:51;;;;;;;0.70;0.70;;;;;;;-3.43;100.00;95647.13;29373;220;63009;-55
2022/12/15 00:48:22;;;;;;;0.80;0.80;;;;;;;-3.41;100.00;95650.34;29373;306;63001;-55
2022/12/15 00:48:54;;;;;;;0.80;0.80;;;;;;;-3.40;100.00;95643.22;29373;279;63009;-56
2022/12/15 00:51:09;;;;;;;0.80;0.80;;;;;;;-3.40;100.00;95645.84;29371;204;64009;-55
2022/12/15 01:20:25;;;;;;;0.80;0.80;;;;;;;-3.42;100.00;95661.19;29395;228;63010;-57
2022/12/15 01:21:01;;;;;;;0.70;0.70;;;;;;;-3.42;100.00;95662.00;29373;298;63009;-55
2022/12/15 01:21:33;;;;;;;0.70;0.70;;;;;;;-3.43;100.00;95665.69;29373;253;63004;-56
2022/12/15 01:22:06;;;;;;;0.80;0.80;;;;;;;-3.40;100.00;95659.13;29373;223;63009;-57
2022/12/15 01:22:38;;;;;;;0.80;0.80;;;;;;;-3.40;100.00;95669.72;29373;318;63004;-56
2022/12/15 01:23:13;;;;;;;0.70;0.70;;;;;;;-3.39;100.00;95658.88;29371;355;64013;-55
2022/12/15 01:23:46;;;;;;;0.90;0.90;;;;;;;-3.39;100.00;95672.16;29371;231;64008;-55
2022/12/15 01:24:17;;;;;;;0.80;0.80;;;;;;;-3.39;100.00;95669.50;29373;293;63009;-56
2022/12/15 01:24:48;;;;;;;0.70;0.70;;;;;;;-3.39;100.00;95661.53;29373;221;63005;-56
2022/12/15 01:25:22;;;;;;;0.77;0.77;;;;;;;-3.39;100.00;95671.34;29373;276;63009;-56
2022/12/15 01:25:54;;;;;;;0.70;0.70;;;;;;;-3.38;100.00;95676.41;29373;205;63008;-56
2022/12/15 01:26:26;;;;;;;0.70;0.70;;;;;;;-3.37;100.00;95679.87;29373;197;63009;-57
2022/12/15 01:26:57;;;;;;;0.70;0.70;;;;;;;-3.38;100.00;95673.75;29373;196;63005;-57
2022/12/15 01:27:28;;;;;;;0.80;0.80;;;;;;;-3.35;100.00;95672.47;29373;280;63009;-55
2022/12/15 01:27:59;;;;;;;0.70;0.70;;;;;;;-3.34;100.00;95675.94;29373;279;63005;-56
2022/12/15 01:28:31;;;;;;;0.70;0.70;;;;;;;-3.33;100.00;95680.22;29373;266;63009;-56
2022/12/15 01:29:03;;;;;;;0.85;0.85;;;;;;;-3.32;100.00;95672.00;29371;230;64009;-56
2022/12/15 01:29:34;;;;;;;0.70;0.70;;;;;;;-3.31;100.00;95678.13;29373;210;63009;-57
2022/12/15 01:30:09;;;;;;;0.70;0.70;;;;;;;-3.33;100.00;95674.91;29373;227;63004;-55
2022/12/15 01:30:42;;;;;;;0.70;0.70;;;;;;;-3.33;100.00;95681.00;29373;199;63008;-55
2022/12/15 01:31:13;;;;;;;0.70;0.70;;;;;;;-3.33;100.00;95681.00;29372;272;63004;-55
2022/12/15 01:31:44;;;;;;;0.70;0.70;;;;;;;-3.34;100.00;95682.06;29373;209;63009;-55
2022/12/15 01:32:16;;;;;;;1.92;1.85;;;;;;;-3.32;100.00;95681.81;29373;214;63005;-56
2022/12/15 01:32:48;;;;;;;0.70;0.70;;;;;;;-3.32;100.00;95679.16;29371;198;64014;-57
2022/12/15 01:33:20;;;;;;;0.85;0.85;;;;;;;-3.32;100.00;95676.50;29373;214;63005;-56
2022/12/15 01:33:54;;;;;;;0.70;0.70;;;;;;;-3.31;100.00;95672.81;29371;202;64013;-56
2022/12/15 01:34:26;;;;;;;0.70;0.70;;;;;;;-3.31;100.00;95683.44;29373;354;63005;-56
2022/12/15 01:34:57;;;;;;;0.70;0.70;;;;;;;-3.31;100.00;95678.13;29373;227;63009;-55
2022/12/15 01:35:28;;;;;;;0.70;0.70;;;;;;;-3.30;100.00;95685.03;29373;253;63005;-56
2022/12/15 01:36:01;;;;;;;0.70;0.70;;;;;;;-3.29;100.00;95673.41;29373;256;63009;-56
2022/12/15 01:36:32;;;;;;;0.80;0.80;;;;;;;-3.30;100.00;95674.44;29373;239;63008;-56
2022/12/15 01:37:04;;;;;;;0.70;0.70;;;;;;;-3.32;100.00;95666.72;29373;203;63009;-56
2022/12/15 01:37:35;;;;;;;0.70;0.70;;;;;;;-3.33;100.00;95664.28;29373;204;63004;-55
2022/12/15 01:38:07;;;;;;;0.77;0.77;;;;;;;-3.33;100.00;95667.75;29373;199;63009;-56
2022/12/15 01:38:38;;;;;;;0.70;0.70;;;;;;;-3.33;99.99;95674.91;29373;290;63004;-56
2022/12/15 01:39:10;;;;;;;0.80;0.80;;;;;;;-3.34;100.00;95678.59;29371;210;64014;-56
2022/12/15 01:40:45;;;;;;;0.70;0.70;;;;;;;-3.35;100.00;95666.38;29373;284;63009;-56
2022/12/15 01:41:16;;;;;;;0.70;0.70;;;;;;;-3.34;100.00;95674.09;29373;230;63005;-56
2022/12/15 01:41:49;;;;;;;0.70;0.70;;;;;;;-3.34;100.00;95678.59;29373;216;63009;-55
2022/12/15 01:42:21;;;;;;;0.70;0.70;;;;;;;-3.35;100.00;95676.97;29373;202;63005;-55
2022/12/15 01:42:53;;;;;;;0.90;0.90;;;;;;;-3.35;100.00;95682.28;29373;350;63009;-56
2022/12/15 01:43:27;;;;;;;0.70;0.70;;;;;;;-3.34;100.00;95678.59;29373;198;63004;-55
2022/12/15 01:44:19;;;;;;;0.70;0.70;;;;;;;-3.35;100.00;95679.63;29373;307;63009;-56
2022/12/15 01:44:52;;;;;;;0.80;0.80;;;;;;;-3.37;100.00;95679.87;29371;200;64009;-56
2022/12/15 01:46:00;;;;;;;0.70;0.70;;;;;;;-3.36;100.00;95681.47;29373;227;63009;-56
2022/12/15 01:46:31;;;;;;;0.77;0.77;;;;;;;-3.37;100.00;95682.53;29373;202;63004;-56
2022/12/15 01:47:04;;;;;;;0.95;0.95;;;;;;;-3.38;100.00;95679.06;29373;202;63009;-56
2022/12/15 01:47:35;;;;;;;0.80;0.80;;;;;;;-3.39;100.00;95680.09;29373;213;63005;-56
2022/12/15 01:48:12;;;;;;;0.70;0.70;;;;;;;-3.39;100.00;95681.94;29373;351;63009;-55
2022/12/15 01:48:59;;;;;;;0.70;0.70;;;;;;;-3.39;100.00;95682.75;29373;216;63005;-56
2022/12/15 01:49:32;;;;;;;0.70;0.70;;;;;;;-3.40;100.00;95689.09;29373;267;63009;-56
2022/12/15 01:50:04;;;;;;;0.77;0.77;;;;;;;-3.41;100.00;95679.53;29371;320;64009;-56
2022/12/15 01:50:41;;;;;;;0.80;0.80;;;;;;;-3.40;100.00;95680.34;29373;235;63009;-56
2022/12/15 01:51:32;;;;;;;0.80;0.80;;;;;;;-3.38;100.00;95686.22;29373;216;63004;-56
2022/12/15 01:52:06;;;;;;;0.70;0.70;;;;;;;-3.37;100.00;95685.16;29395;283;63004;-56
2022/12/15 01:52:37;;;;;;;0.73;0.73;;;;;;;-3.36;100.00;95692.09;29395;220;63009;-56
2022/12/15 01:53:13;;;;;;;0.95;0.95;;;;;;;-3.35;100.00;95687.59;29373;222;63004;-56
2022/12/15 01:54:02;;;;;;;0.80;0.80;;;;;;;-3.39;100.00;95682.75;29373;205;63008;-55
2022/12/15 01:54:48;;;;;;;0.75;0.75;;;;;;;-3.40;100.00;95686.44;29371;233;64009;-56
2022/12/15 01:55:24;;;;;;;0.70;0.70;;;;;;;-3.41;100.00;95689.31;29373;291;63009;-56
2022/12/15 01:57:10;;;;;;;0.69;0.69;;;;;;;-3.39;100.00;95690.72;88174;218;64004;-57
2022/12/15 01:57:42;;;;;;;0.70;0.70;;;;;;;-3.37;100.00;95691.28;29394;322;64009;-56
2022/12/15 01:58:16;;;;;;;0.70;0.70;;;;;;;-3.36;100.00;95694.75;29373;212;63017;-56
2022/12/15 01:58:50;;;;;;;0.70;0.70;;;;;;;-3.34;100.00;95694.50;29373;197;63009;-55
2022/12/15 01:59:32;;;;;;;0.90;0.90;;;;;;;-3.38;100.00;95689.66;29371;220;64009;-55
2022/12/15 02:00:07;;;;;;;0.70;0.70;;;;;;;-3.38;100.00;95689.66;29373;366;63009;-54
2022/12/15 02:00:38;;;;;;;0.70;0.70;;;;;;;-3.36;100.00;95689.44;29373;272;63004;-55
2022/12/15 02:01:13;;;;;;;0.80;0.80;;;;;;;-3.36;100.00;95684.12;29373;290;63009;-55
2022/12/15 02:01:47;;;;;;;0.70;0.70;;;;;;;-3.35;100.00;95679.63;29373;238;63004;-54
2022/12/15 02:02:24;;;;;;;0.80;0.80;;;;;;;-3.34;100.00;95691.84;29373;206;63009;-56
2022/12/15 02:03:00;;;;;;;0.70;0.70;;;;;;;-3.37;100.00;95680.66;29373;262;63004;-54
2022/12/15 02:03:32;;;;;;;0.80;0.80;;;;;;;-3.37;100.00;95679.87;29373;215;63008;-56
2022/12/15 02:04:03;;;;;;;0.70;0.70;;;;;;;-3.38;100.00;95679.06;29373;213;63005;-55
2022/12/15 02:04:36;;;;;;;0.70;0.70;;;;;;;-3.35;100.00;95685.75;29371;241;64014;-56
2022/12/15 02:05:09;;;;;;;0.80;0.80;;;;;;;-3.34;100.00;95686.56;29373;226;63005;-56
2022/12/15 02:05:41;;;;;;;0.70;0.70;;;;;;;-3.33;100.00;95685.50;29373;211;63009;-55
2022/12/15 02:06:14;;;;;;;0.70;0.70;;;;;;;-3.33;100.00;95696.94;29373;233;63005;-55
2022/12/15 02:06:45;;;;;;;0.70;0.70;;;;;;;-3.32;100.00;95697.72;29373;216;63014;-56
2022/12/15 02:07:17;;;;;;;0.80;0.80;;;;;;;-3.33;100.00;95696.94;29373;265;63005;-55
2022/12/15 02:07:49;;;;;;;0.75;0.75;;;;;;;-3.33;100.00;95696.13;29373;254;63014;-55
2022/12/15 02:08:21;;;;;;;0.80;0.80;;;;;;;-3.34;100.00;95697.16;29373;196;63004;-55
2022/12/15 02:08:56;;;;;;;0.70;0.70;;;;;;;-3.35;100.00;95706.16;29373;262;63024;-56
2022/12/15 02:09:28;;;;;;;0.68;0.68;;;;;;;-3.37;100.00;95699.25;29373;232;63004;-56
2022/12/15 02:10:02;;;;;;;0.70;0.70;;;;;;;-3.39;100.00;95701.31;29371;213;64013;-55
2022/12/15 02:11:14;;;;;;;5.15;4.95;;;;;;;-3.38;100.00;95705.59;29373;230;63007;-55
2022/12/15 02:12:25;;;;;;;0.70;0.70;;;;;;;-3.39;100.00;95703.97;29395;211;63009;-56
2022/12/15 02:13:30;;;;;;;0.75;0.75;;;;;;;-3.37;100.00;95701.87;29395;292;63005;-54
2022/12/15 02:14:13;;;;;;;0.60;0.60;;;;;;;-3.38;100.00;95707.44;29373;220;63009;-55
2022/12/15 02:15:35;;;;;;;0.73;0.73;;;;;;;-3.38;100.00;95705.59;29373;219;63005;-55
2022/12/15 02:16:56;;;;;;;0.70;0.70;;;;;;;-3.35;100.00;95698.19;29393;216;64013;-57
2022/12/15 02:18:12;;;;;;;0.70;0.70;;;;;;;-3.32;100.00;95700.38;29395;197;63006;-56
2022/12/15 02:19:16;;;;;;;0.80;0.80;;;;;;;-3.31;100.00;95694.03;29373;233;63008;-54
2022/12/15 02:20:25;;;;;;;0.80;0.80;;;;;;;-3.35;100.00;95698.19;29373;328;63001;-56
2022/12/15 02:21:26;;;;;;;0.80;0.80;;;;;;;-3.39;100.00;95692.56;29373;214;63009;-56
2022/12/15 02:22:47;;;;;;;0.80;0.80;;;;;;;-3.37;100.00;95706.38;29371;339;64009;-55
2022/12/15 02:24:12;;;;;;;0.80;0.80;;;;;;;-3.35;100.00;95708.81;29373;235;63009;-54
2022/12/15 02:25:31;;;;;;;0.80;0.80;;;;;;;-3.41;100.00;95706.03;29373;230;63004;-55
2022/12/15 02:26:44;;;;;;;0.80;0.80;;;;;;;-3.42;100.00;95701.78;29373;289;63009;-56
2022/12/15 02:27:54;;;;;;;0.80;0.80;;;;;;;-3.42;100.00;95708.94;29393;197;64014;-55
2022/12/15 02:28:55;;;;;;;0.80;0.80;;;;;;;-3.40;100.00;95701.56;29395;244;63005;-56
2022/12/15 02:30:21;;;;;;;0.80;0.80;;;;;;;-3.38;100.00;95705.59;29373;197;63009;-56
2022/12/15 02:32:24;;;;;;;0.80;0.80;;;;;;;-3.33;100.00;95696.13;29373;302;63009;-56
2022/12/15 02:33:07;;;;;;;0.60;0.60;;;;;;;-3.33;99.99;95696.94;29371;228;64008;-55
2022/12/15 02:34:24;;;;;;;0.80;0.80;;;;;;;-3.31;100.00;95699.34;29373;222;63016;-56
2022/12/15 02:35:05;;;;;;;0.70;0.70;;;;;;;-3.31;99.58;95702.00;29373;353;63005;-54
2022/12/15 02:36:05;;;;;;;0.70;0.70;;;;;;;-3.33;99.85;95702.22;29395;205;63009;-55
2022/12/15 02:36:40;;;;;;;0.80;0.80;;;;;;;-3.32;99.83;95703.03;29395;241;63005;-55
2022/12/15 02:37:33;;;;;;;0.80;0.80;;;;;;;-3.33;99.82;95696.13;29373;224;63009;-54
2022/12/15 02:38:07;;;;;;;0.70;0.70;;;;;;;-3.32;99.70;95697.72;29371;257;64009;-56
2022/12/15 02:38:43;;;;;;;0.80;0.80;;;;;;;-3.33;99.86;95704.88;29373;241;63009;-56
2022/12/15 02:39:17;;;;;;;0.70;0.70;;;;;;;-3.34;99.38;95705.13;29373;222;63004;-55
2022/12/15 02:39:52;;;;;;;0.70;0.70;;;;;;;-3.32;99.52;95703.03;29373;209;63009;-55
2022/12/15 02:40:23;;;;;;;0.80;0.80;;;;;;;-3.32;99.30;95700.38;29373;229;63006;-55
2022/12/15 02:40:59;;;;;;;0.80;0.80;;;;;;;-3.31;99.48;95694.03;29373;212;63009;-55
2022/12/15 02:41:37;;;;;;;0.80;0.80;;;;;;;-3.33;99.41;95699.59;29373;204;63005;-56
2022/12/15 02:42:10;;;;;;;0.65;0.65;;;;;;;-3.34;99.13;95699.81;29373;203;63009;-56
2022/12/15 02:42:54;;;;;;;0.70;0.70;;;;;;;-3.38;99.20;95708.25;29373;264;63005;-56
2022/12/15 02:43:28;;;;;;;0.70;0.70;;;;;;;-3.37;99.45;95709.03;29371;224;64013;-55
2022/12/15 02:44:04;;;;;;;1.95;1.90;;;;;;;-3.37;99.29;95711.69;29373;203;63005;-55
2022/12/15 02:44:55;;;;;;;0.70;0.70;;;;;;;-3.38;99.56;95705.59;29373;269;63009;-55
2022/12/15 02:46:00;;;;;;;0.90;0.90;;;;;;;-3.39;99.42;95709.28;29373;234;63017;-56
2022/12/15 02:46:53;;;;;;;0.80;0.80;;;;;;;-3.38;99.68;95702.94;29373;204;63009;-55
2022/12/15 02:47:38;;;;;;;0.70;0.70;;;;;;;-3.33;99.76;95712.03;29373;291;63004;-55
2022/12/15 02:48:35;;;;;;;2.75;2.65;;;;;;;-3.34;99.59;95713.06;29373;281;63017;-55
2022/12/15 02:49:48;;;;;;;0.80;0.80;;;;;;;-3.34;99.83;95718.37;29371;233;64009;-56
2022/12/15 02:51:01;;;;;;;0.80;0.80;;;;;;;-3.37;99.40;95717.00;29371;300;64013;-55
2022/12/15 02:52:03;;;;;;;0.88;0.88;;;;;;;-3.41;99.49;95724.63;29355;202;125005;-54
2022/12/15 02:53:32;;;;;;;0.80;0.80;;;;;;;-3.42;99.54;95716.87;29395;227;63009;-55
2022/12/15 02:54:49;;;;;;;0.70;0.70;;;;;;;-3.43;99.24;95712.63;29395;339;63004;-54
2022/12/15 02:55:50;;;;;;;0.70;0.70;;;;;;;-3.44;99.50;95722.44;29371;196;64013;-54
2022/12/15 02:56:33;;;;;;;1.52;1.52;;;;;;;-3.45;99.44;95720.81;29373;223;63005;-55
2022/12/15 02:57:26;;;;;;;0.70;0.70;;;;;;;-3.46;99.12;95708.59;29395;286;63009;-56
2022/12/15 02:58:53;;;;;;;0.70;0.70;;;;;;;-3.49;99.10;95714.38;29395;254;63005;-56
2022/12/15 02:59:43;;;;;;;0.75;0.75;;;;;;;-3.49;99.12;95709.09;29373;356;63009;-55
2022/12/15 03:00:16;;;;;;;0.73;0.73;;;;;;;-3.48;99.25;95716.00;29374;224;63004;-55
2022/12/15 03:00:57;;;;;;;0.70;0.70;;;;;;;-3.48;99.46;95710.69;29371;222;64013;-55
2022/12/15 03:01:50;;;;;;;0.70;0.70;;;;;;;-3.50;99.13;95712.78;29395;199;63004;-55
2022/12/15 03:02:25;;;;;;;0.70;0.70;;;;;;;-3.49;99.23;95717.03;29395;203;63009;-55
2022/12/15 03:02:57;;;;;;;0.70;0.70;;;;;;;-3.49;99.33;95714.38;29373;263;63004;-56
2022/12/15 03:03:31;;;;;;;1.33;1.33;;;;;;;-3.47;99.32;95725.56;29371;307;64014;-55
2022/12/15 03:04:07;;;;;;;0.70;0.70;;;;;;;-3.48;99.05;95721.31;29373;230;63005;-56
2022/12/15 03:04:41;;;;;;;0.70;0.70;;;;;;;-3.47;99.09;95717.63;29373;206;63009;-56
2022/12/15 03:05:15;;;;;;;0.70;0.70;;;;;;;-3.50;99.11;95726.03;29373;297;63005;-55
2022/12/15 03:05:52;;;;;;;0.80;0.80;;;;;;;-3.51;98.94;95716.47;29373;197;63009;-55
2022/12/15 03:06:25;;;;;;;0.60;0.60;;;;;;;-3.51;98.84;95723.63;29371;207;64009;-56
2022/12/15 03:06:59;;;;;;;0.70;0.70;;;;;;;-3.51;99.30;95720.97;29373;203;63009;-55
2022/12/15 03:07:31;;;;;;;0.70;0.70;;;;;;;-3.50;99.06;95722.56;29373;347;63005;-54
2022/12/15 03:08:03;;;;;;;0.80;0.80;;;;;;;-3.50;99.09;95726.03;29373;218;63009;-55
2022/12/15 03:08:34;;;;;;;0.80;0.80;;;;;;;-3.51;99.09;95721.78;29371;220;64009;-55
2022/12/15 03:09:05;;;;;;;0.70;0.70;;;;;;;-3.49;99.11;95719.69;29373;244;63009;-55
2022/12/15 03:09:37;;;;;;;0.80;0.80;;;;;;;-3.49;99.21;95714.38;29373;212;63004;-56
2022/12/15 03:10:11;;;;;;;0.70;0.70;;;;;;;-3.48;98.98;95721.31;29373;215;63021;-54
2022/12/15 03:10:43;;;;;;;0.70;0.70;;;;;;;-3.48;98.98;95710.69;29373;229;63004;-55
2022/12/15 03:11:14;;;;;;;0.70;0.70;;;;;;;-3.49;99.26;95714.38;29371;212;64014;-55
2022/12/15 03:11:46;;;;;;;0.70;0.70;;;;;;;-3.51;98.99;95710.34;29373;254;63005;-55
2022/12/15 03:12:17;;;;;;;0.70;0.70;;;;;;;-3.52;98.92;95714.84;29372;213;63009;-55
2022/12/15 03:12:49;;;;;;;0.70;0.70;;;;;;;-3.51;98.91;95713.81;29373;224;63005;-55
2022/12/15 03:14:29;;;;;;;0.98;0.98;;;;;;;-3.48;99.08;95726.59;88174;211;64005;-56
2022/12/15 03:15:00;;;;;;;1.00;1.00;;;;;;;-3.49;99.08;95719.69;29394;204;64009;-56
2022/12/15 03:15:31;;;;;;;0.70;0.70;;;;;;;-3.49;99.01;95717.03;29373;232;63004;-56
2022/12/15 03:16:03;;;;;;;0.80;0.80;;;;;;;-3.50;99.34;95723.38;29373;208;63009;-57
2022/12/15 03:16:34;;;;;;;0.70;0.70;;;;;;;-3.49;99.40;95719.69;29371;256;64008;-56
2022/12/15 03:17:06;;;;;;;0.70;0.70;;;;;;;-3.49;99.05;95725.00;29373;239;63008;-56
2022/12/15 03:17:38;;;;;;;0.70;0.70;;;;;;;-3.49;99.09;95725.00;29373;216;63005;-56
2022/12/15 03:18:09;;;;;;;0.70;0.70;;;;;;;-3.50;98.92;95726.03;29373;214;63009;-56
2022/12/15 03:18:40;;;;;;;0.70;0.70;;;;;;;-3.50;99.23;95727.88;29371;224;64009;-57
2022/12/15 03:19:12;;;;;;;0.60;0.60;;;;;;;-3.52;99.05;95730.75;29373;230;63009;-56
2022/12/15 03:19:43;;;;;;;0.98;0.98;;;;;;;-3.51;99.18;95732.37;29371;205;64009;-56
2022/12/15 03:20:15;;;;;;;0.70;0.70;;;;;;;-3.50;99.07;95728.69;29373;284;63009;-57
2022/12/15 03:20:46;;;;;;;3.90;3.62;;;;;;;-3.51;99.42;95737.69;29373;306;63008;-56
2022/12/15 03:21:19;;;;;;;0.70;0.70;;;;;;;-3.49;99.13;95735.59;29373;345;63009;-56
2022/12/15 03:21:54;;;;;;;0.70;0.70;;;;;;;-3.47;99.33;95736.19;29373;300;63004;-56
2022/12/15 03:22:26;;;;;;;0.80;0.80;;;;;;;-3.46;99.26;95734.31;29373;317;63009;-57
2022/12/15 03:22:57;;;;;;;0.70;0.70;;;;;;;-3.47;99.19;95738.84;29373;217;63004;-56
2022/12/15 03:23:28;;;;;;;0.70;0.70;;;;;;;-3.48;99.11;95737.22;29371;208;64013;-56
2022/12/15 03:24:00;;;;;;;0.80;0.80;;;;;;;-3.49;99.30;95740.91;29373;344;63004;-56
2022/12/15 03:24:31;;;;;;;0.70;0.70;;;;;;;-3.48;99.04;95747.81;29373;219;63008;-56
2022/12/15 03:25:03;;;;;;;0.80;0.80;;;;;;;-3.49;99.36;95740.91;29373;253;63012;-57
2022/12/15 03:25:35;;;;;;;0.70;0.70;;;;;;;-3.48;99.21;95737.22;29373;238;63015;-57
2022/12/15 03:26:06;;;;;;;0.70;0.70;;;;;;;-3.47;99.48;95738.84;29373;230;63010;-56
2022/12/15 03:26:38;;;;;;;0.80;0.80;;;;;;;-3.45;99.51;95741.22;29373;222;63009;-57
2022/12/15 03:27:09;;;;;;;0.70;0.70;;;;;;;-3.44;99.59;95738.34;29373;210;63005;-56
2022/12/15 03:27:40;;;;;;;0.70;0.70;;;;;;;-3.45;99.21;95736.72;29373;227;63009;-56
2022/12/15 03:28:12;;;;;;;0.70;0.70;;;;;;;-3.44;99.50;95735.69;29373;203;63005;-56
2022/12/15 03:28:43;;;;;;;0.80;0.80;;;;;;;-3.43;99.29;95736.50;29371;232;64013;-56
2022/12/15 03:29:18;;;;;;;0.70;0.70;;;;;;;-3.45;99.28;95730.63;29373;209;63004;-56
2022/12/15 03:29:49;;;;;;;1.73;1.67;;;;;;;-3.45;99.40;95733.25;29373;318;63009;-56
2022/12/15 03:30:21;;;;;;;0.73;0.73;;;;;;;-3.47;99.67;95725.56;29373;292;63004;-56
2022/12/15 03:30:55;;;;;;;0.70;0.70;;;;;;;-3.47;99.54;95733.53;29371;205;64013;-56
2022/12/15 03:31:26;;;;;;;0.80;0.80;;;;;;;-3.47;99.71;95727.41;29373;230;63004;-56
2022/12/15 03:31:58;;;;;;;8.23;6.37;;;;;;;-3.46;99.42;95729.81;29373;198;63022;-56
2022/12/15 03:32:30;;;;;;;0.70;0.70;;;;;;;-3.45;99.73;95728.75;29373;204;63005;-57
2022/12/15 03:33:02;;;;;;;0.70;0.70;;;;;;;-3.46;99.56;95729.81;29373;211;63009;-55
2022/12/15 03:33:33;;;;;;;0.70;0.70;;;;;;;-3.45;99.83;95730.63;29373;240;63005;-56
2022/12/15 03:34:04;;;;;;;0.80;0.80;;;;;;;-3.45;99.61;95731.41;29373;205;63009;-55
2022/12/15 03:34:35;;;;;;;0.80;0.80;;;;;;;-3.44;99.65;95732.22;29373;329;63005;-56
2022/12/15 03:35:08;;;;;;;0.70;0.70;;;;;;;-3.41;99.59;95742.38;29373;203;63009;-56
2022/12/15 03:35:39;;;;;;;0.80;0.80;;;;;;;-3.42;99.47;95730.16;29371;230;64009;-56
2022/12/15 03:36:13;;;;;;;0.70;0.70;;;;;;;-3.43;99.60;95725.87;29373;204;63009;-56
2022/12/15 03:36:44;;;;;;;0.70;0.70;;;;;;;-3.43;99.96;95725.87;29373;348;63004;-56
2022/12/15 03:37:15;;;;;;;0.70;0.70;;;;;;;-3.42;99.96;95727.50;29373;250;63009;-57
2022/12/15 03:37:47;;;;;;;0.70;0.70;;;;;;;-3.41;99.82;95731.75;29373;196;63004;-56
2022/12/15 03:38:18;;;;;;;0.70;0.70;;;;;;;-3.43;99.94;95734.66;29373;210;63008;-56
2022/12/15 03:38:49;;;;;;;0.73;0.73;;;;;;;-3.44;99.72;95733.03;29373;220;63004;-56
2022/12/15 03:39:21;;;;;;;0.80;0.80;;;;;;;-3.43;99.55;95734.66;29373;335;63008;-56
2022/12/15 03:39:52;;;;;;;0.77;0.77;;;;;;;-3.43;99.83;95728.53;29373;367;63005;-56
2022/12/15 03:40:23;;;;;;;0.75;0.75;;;;;;;-3.43;99.67;95739.94;29371;310;64014;-54
2022/12/15 03:40:55;;;;;;;0.70;0.70;;;;;;;-3.43;99.67;95734.66;29372;305;64009;-56
2022/12/15 03:41:26;;;;;;;1.10;1.10;;;;;;;-3.43;99.59;95739.94;29373;199;63009;-56
2022/12/15 03:41:57;;;;;;;0.80;0.80;;;;;;;-3.44;99.79;95741.00;29373;206;63005;-56
2022/12/15 03:43:18;;;;;;;0.70;0.70;;;;;;;-3.46;99.67;95745.72;29373;218;63004;-56
2022/12/15 03:43:49;;;;;;;0.77;0.77;;;;;;;-3.46;99.57;95745.72;29373;217;63009;-56
2022/12/15 03:44:20;;;;;;;0.70;0.70;;;;;;;-3.45;99.85;95749.19;29371;225;64009;-56
2022/12/15 03:44:54;;;;;;;0.70;0.70;;;;;;;-3.46;99.50;95751.03;29371;209;64013;-56
2022/12/15 03:45:27;;;;;;;0.70;0.70;;;;;;;-3.47;99.68;95749.44;29373;206;63004;-56
2022/12/15 03:45:58;;;;;;;0.70;0.70;;;;;;;-3.46;99.70;95755.50;29373;307;63008;-56
2022/12/15 03:46:30;;;;;;;0.80;0.80;;;;;;;-3.48;99.75;95749.66;29373;227;63004;-56
2022/12/15 03:47:01;;;;;;;0.70;0.70;;;;;;;-3.48;99.69;95747.81;29372;227;63009;-56
2022/12/15 03:47:32;;;;;;;0.80;0.80;;;;;;;-3.48;99.77;95745.16;29373;218;63005;-56
2022/12/15 03:48:04;;;;;;;0.70;0.70;;;;;;;-3.47;99.78;95754.75;29373;280;63009;-55
2022/12/15 03:48:35;;;;;;;0.73;0.73;;;;;;;-3.48;99.54;95757.63;29373;206;63005;-56
2022/12/15 03:49:07;;;;;;;0.70;0.70;;;;;;;-3.50;99.50;95749.91;29373;377;63009;-56
2022/12/15 03:49:38;;;;;;;0.70;0.70;;;;;;;-3.50;99.67;95751.75;29371;343;64009;-56
2022/12/15 03:50:12;;;;;;;0.70;0.70;;;;;;;-3.51;99.40;95752.78;29373;212;63026;-56
2022/12/15 03:50:44;;;;;;;0.80;0.80;;;;;;;-3.53;99.65;95755.66;29372;247;64004;-56
2022/12/15 03:51:17;;;;;;;0.70;0.70;;;;;;;-3.53;99.33;95753.00;29373;203;63009;-56
2022/12/15 03:51:49;;;;;;;0.80;0.80;;;;;;;-3.52;99.88;95749.31;29373;319;63004;-56
2022/12/15 03:52:20;;;;;;;0.80;0.80;;;;;;;-3.52;99.45;95751.97;29373;271;63009;-57
2022/12/15 03:52:57;;;;;;;0.80;0.80;;;;;;;-3.54;99.55;95740.78;29373;215;63004;-56
2022/12/15 03:53:28;;;;;;;1.80;1.80;;;;;;;-3.54;99.37;95740.78;29373;197;63008;-56
2022/12/15 03:53:59;;;;;;;0.80;0.80;;;;;;;-3.53;99.74;95750.38;29373;203;63001;-55
2022/12/15 03:54:31;;;;;;;0.80;0.80;;;;;;;-3.53;99.57;95745.06;29373;334;63009;-57
2022/12/15 03:55:03;;;;;;;1.42;1.42;;;;;;;-3.52;99.76;95746.66;29371;206;64009;-56
2022/12/15 03:55:34;;;;;;;0.70;0.70;;;;;;;-3.50;99.60;95752.56;29373;198;63009;-56
2022/12/15 03:56:06;;;;;;;0.70;0.70;;;;;;;-3.50;99.74;95749.91;29373;255;63005;-56
2022/12/15 03:56:38;;;;;;;1.55;1.55;;;;;;;-3.49;99.59;95746.22;29373;236;63009;-57
2022/12/15 03:57:12;;;;;;;0.70;0.70;;;;;;;-3.48;99.91;95749.66;29373;223;63005;-56
2022/12/15 03:57:43;;;;;;;0.62;0.62;;;;;;;-3.49;99.65;95751.50;29373;356;63009;-56
2022/12/15 03:58:16;;;;;;;0.70;0.70;;;;;;;-3.48;99.81;95747.81;29371;307;64009;-56
2022/12/15 03:58:48;;;;;;;0.80;0.80;;;;;;;-3.48;99.70;95753.13;29373;298;63009;-56
2022/12/15 03:59:19;;;;;;;0.70;0.70;;;;;;;-3.49;99.43;95746.22;29371;240;64009;-56
2022/12/15 03:59:51;;;;;;;0.70;0.70;;;;;;;-3.49;99.61;95756.81;29373;231;63009;-56
2022/12/15 04:00:25;;;;;;;0.80;0.80;;;;;;;-3.48;99.84;95757.63;29373;197;63004;-56
2022/12/15 04:00:56;;;;;;;1.00;1.00;;;;;;;-3.48;99.58;95761.09;29373;227;63008;-56
2022/12/15 04:01:31;;;;;;;2.55;2.45;;;;;;;-3.50;99.90;95752.56;29373;202;63004;-55
2022/12/15 04:02:02;;;;;;;0.77;0.77;;;;;;;-3.50;99.78;95760.50;29373;294;63009;-56
2022/12/15 04:02:33;;;;;;;0.70;0.70;;;;;;;-3.49;99.81;95770.06;29373;274;63005;-56
2022/12/15 04:03:05;;;;;;;0.80;0.80;;;;;;;-3.50;99.67;95760.50;29373;202;63009;-56
2022/12/15 04:03:36;;;;;;;0.80;0.80;;;;;;;-3.48;99.60;95769.03;29371;213;64009;-56
2022/12/15 04:04:08;;;;;;;0.70;0.70;;;;;;;-3.49;99.61;95767.44;29372;218;64009;-56
2022/12/15 04:04:39;;;;;;;0.80;0.80;;;;;;;-3.47;99.86;95762.69;29373;370;63016;-56
2022/12/15 04:05:17;;;;;;;0.70;0.70;;;;;;;-3.46;99.62;95772.25;29373;204;63009;-57
2022/12/15 04:05:49;;;;;;;0.70;0.70;;;;;;;-3.48;99.82;95766.38;29373;220;63004;-57
2022/12/15 04:06:21;;;;;;;0.70;0.70;;;;;;;-3.46;99.57;95771.44;29373;205;63009;-57
2022/12/15 04:06:52;;;;;;;0.77;0.77;;;;;;;-3.46;99.87;95758.16;29373;307;63004;-56
2022/12/15 04:07:24;;;;;;;0.80;0.80;;;;;;;-3.46;99.53;95760.81;29373;202;63009;-56
2022/12/15 04:07:57;;;;;;;0.70;0.70;;;;;;;-3.46;99.51;95768.78;29373;205;63010;-56
2022/12/15 04:08:28;;;;;;;0.70;0.70;;;;;;;-3.47;99.67;95768.00;29373;226;63008;-56
2022/12/15 04:08:59;;;;;;;0.68;0.68;;;;;;;-3.48;99.58;95761.09;29371;212;64008;-56
2022/12/15 04:09:30;;;;;;;0.70;0.70;;;;;;;-3.50;99.12;95755.19;29373;256;63009;-56
2022/12/15 04:10:02;;;;;;;0.73;0.73;;;;;;;-3.52;99.35;95765.22;29372;197;63005;-54
2022/12/15 04:10:35;;;;;;;0.70;0.70;;;;;;;-3.55;99.04;95764.88;29373;297;63009;-56
2022/12/15 04:11:06;;;;;;;0.70;0.70;;;;;;;-3.55;99.28;95763.03;29373;224;63005;-56
2022/12/15 04:11:43;;;;;;;1.83;1.83;;;;;;;-3.55;99.57;95768.34;29373;356;63009;-56
2022/12/15 04:12:14;;;;;;;0.70;0.70;;;;;;;-3.54;99.59;95767.31;29373;310;63005;-56
2022/12/15 04:12:55;;;;;;;0.70;0.70;;;;;;;-3.53;99.19;95771.56;29373;204;63009;-56
2022/12/15 04:13:26;;;;;;;0.70;0.70;;;;;;;-3.52;99.56;95775.84;29395;209;63004;-56
2022/12/15 04:13:57;;;;;;;0.70;0.70;;;;;;;-3.52;99.33;95778.50;29395;304;63009;-56
2022/12/15 04:14:30;;;;;;;0.60;0.60;;;;;;;-3.49;99.48;95777.22;29371;202;64009;-56
2022/12/15 04:15:04;;;;;;;0.73;0.73;;;;;;;-3.48;99.49;95779.66;29373;203;63009;-57